x

Virginia Beach 64 Nm East Of Virginia Beach, Va (44014) Wave Buoy

8:50 - Tue 23rd Aug 2016 All times are EDT. -4 hours from GMT.

  • Sig Wave height 3.0ft
  • Swell Direction
  • Peak Period 7s
  • Average Period 4s
  • Wind
    13mph, 16mph gusts
  • Sea Temp 82°f
  • Aire Temp 76°f
  • Sea Pressure 1025.1mb
  • Virginia Beach 64 Nm East Of Virginia Beach, Va
  • Virginia Beach 64 Nm East Of Virginia Beach, Va

More Historic Weather Station data

Upgrade to MSW Pro to gain access to the past 30 days of data for over 8000 Wavebouys and Weather Stations around the globe.

Join Pro

Comparision Forecast

View Surf forecast
   
mar 08/23 8:50 3ft 7s 4s 13 16 mph 1025.1mb 82f 76f
7:50 3ft 7s 4s 16 20 mph 1024.7mb 82f 76f
6:50 3.5ft 6s 4s 16 20 mph 1024.3mb 82f 77f
5:50 3ft 6s 4s 13 18 mph 1024.4mb 82f 77f
4:50 3.5ft 6s 4s 13 18 mph 1024.6mb 82f 77f
3:50 2.5ft 7s 4s 16 18 mph 1024.6mb 82f 77f
2:50 3ft 5s 4s 13 18 mph 1025mb 82f 77f
12:50 3.5ft 5s 4s 16 20 mph 1025.6mb 82f 77f
11:50 3ft 5s 4s 18 22 mph 1025.8mb 82f 77f
10:50 3ft 5s 4s 18 20 mph 1025.9mb 81f 78f
9:50 2.5ft 4s 4s 18 22 mph 1025.4mb 81f 78f
8:50 2.5ft 5s 4s 16 20 mph 1025mb 81f 78f
7:50 3ft 5s 4s 16 20 mph 1024.4mb 81f 78f
6:50 3ft 5s 4s 16 18 mph 1024.1mb 81f 78f
4:50 3ft 5s 4s 16 20 mph 1022.7mb 81f 79f
3:50 2.5ft 6s 4s 13 18 mph 1022.5mb 81f 79f
2:50 2.5ft 6s 4s 13 18 mph 1022.1mb 81f 79f
1:50 3ft 6s 4s 16 18 mph 1021.9mb 82f 79f
12:50 2.5ft 6s 4s 13 16 mph 1021.8mb 82f 80f
lun 08/22 11:50 2ft 6s 4s 13 18 mph 1021.5mb 82f 80f
10:50 1.6ft 5s 4s 16 20 mph 1021.2mb 82f 81f
9:50 1.6ft 6s 4s 13 16 mph 1021mb 82f 80f
8:50 2ft 6s 4s 11 16 mph 1020.3mb 82f 80f
7:50 2.5ft 6s 4s 11 13 mph 1019.8mb 82f 80f
6:50 3ft 6s 4s 11 13 mph 1019.2mb 82f 80f
5:50 3ft 6s 4s 13 16 mph 1018.7mb 82f 80f
4:50 3.5ft 6s 4s 13 16 mph 1018.2mb 82f 80f
3:50 4ft 6s 4s 13 16 mph 1018.2mb 82f 80f
2:50 4ft 6s 4s 16 20 mph 1018mb 82f 79f
1:50 5ft 6s 5s 18 20 mph 1017.6mb 82f 79f
12:50 5ft 6s 5s 20 22 mph 1017.3mb 82f 79f
11:50 5.5ft 6s 5s 20 25 mph 1017.1mb 82f 79f
10:50 5.5ft 6s 5s 22 27 mph 1016.4mb 82f 79f
9:50 5.5ft 6s 5s 22 29 mph 1015.8mb 82f 79f
8:50 5ft 6s 4s 25 29 mph 1014.9mb 82f 79f
7:50 5ft 5s 4s 25 27 mph 1014.4mb 82f 79f
6:50 4.5ft 5s 4s 25 29 mph 1013.3mb 82f 80f
5:50 4.5ft 5s 4s 25 29 mph 1012.4mb 83f 80f
4:50 4.5ft 5s 4s 25 29 mph 1011.5mb 83f 81f
3:50 4ft 4s 4s 20 25 mph 1011.2mb 83f 81f
2:50 3.5ft 4s 4s 22 25 mph 1010.4mb 83f 81f
1:50 3.5ft 4s 4s 20 25 mph 1010.4mb 83f 81f
12:50 3.5ft 4s 4s 16 20 mph 1010.6mb 83f 81f
dom 08/21 11:50 3.5ft 4s 4s 11 13 mph 1010mb 83f 81f
10:50 3ft 4s 4s 31 40 mph 1009.6mb 83f 78f
9:50 3ft 4s 4s 18 20 mph 1009.2mb 83f 84f
8:50 2.5ft 4s 4s 18 20 mph 1009.3mb 83f 83f
7:50 3ft 4s 4s 18 20 mph 1009.1mb 83f 84f
6:50 2.5ft 3s 4s 18 20 mph 1009.1mb 84f 84f
5:50 2.5ft 14s 4s 18 20 mph 1009.2mb 84f 83f
4:50 2ft 7s 5s 16 18 mph 1009.1mb 84f 83f
3:50 1.6ft 7s 5s 11 13 mph 1009.7mb 84f 83f
2:50 1.6ft 7s 5s 9
mph
1010.2mb 84f 82f
1:50 2ft 14s 5s 7 9 mph 1010.8mb 84f 82f
12:50 2ft 7s 4s 7 9 mph 1011.2mb 84f 82f
11:50 2ft 8s 5s 11 13 mph 1011.8mb 83f 82f
10:50 2ft 8s 5s 11 13 mph 1012mb 83f 82f
9:50 2ft 14s 5s 9 11 mph 1011.8mb 83f 82f
8:50 2ft 14s 5s 7 9 mph 1011.6mb 83f 81f
7:50 1.6ft 8s 5s 7 9 mph 1011.4mb 83f 81f
6:50 1.6ft 14s 5s 7 11 mph 1010.9mb 83f 81f
5:50 2ft 7s 5s 4
mph
1010.4mb 83f 81f
4:50 1.6ft 8s 5s 4 7 mph 1010.3mb 83f 81f
3:50 2ft 7s 5s 7 9 mph 1010.5mb 83f 81f
2:50 2ft 8s 5s 7 9 mph 1010.9mb 83f 82f
1:50 1.6ft 7s 4s 9 11 mph 1011.2mb 83f 82f
12:50 2ft 8s 4s 9 11 mph 1011.2mb 83f 82f
sáb 08/20 11:50 2ft 7s 4s 9 11 mph 1011.3mb 83f 81f
10:50 2ft 8s 5s 9 11 mph 1011.5mb 83f 81f
9:50 2ft 7s 5s 9 11 mph 1011.6mb 83f 81f
8:50 1.6ft 7s 5s 11 13 mph 1011.5mb 84f 81f
7:50 1.6ft 8s 5s 9 13 mph 1011.1mb 84f 81f
6:50 1.6ft 14s 5s 7 11 mph 1011mb 84f 81f
5:50 1.3ft 8s 5s 9 11 mph 1011.1mb 84f 81f
4:50 1.6ft 15s 5s 7 9 mph 1011.2mb 85f 81f
3:50 1.6ft 15s 5s 4 7 mph 1011.5mb 85f 81f
2:50 2ft 4s 4s 2
mph
1011.8mb 84f 81f
1:50 2ft 8s 4s 2 4 mph 1012mb 84f 80f
12:50 1.6ft 7s 4s 9 11 mph 1012.2mb 83f 80f
11:50 1.6ft 7s 4s 9 11 mph 1012.5mb 83f 80f
10:50 1.6ft 8s 5s 11 13 mph 1012.7mb 83f 80f
9:50 1.6ft 8s 5s 9 11 mph 1012.9mb 83f 79f
8:50 1.6ft 7s 6s 11 13 mph 1012.7mb 83f 79f
7:50 1.3ft 7s 6s 9 11 mph 1012.5mb 83f 80f
6:50 1.3ft 15s 6s 9 11 mph 1012.3mb 83f 80f
5:50 1.3ft 5s 5s 9 11 mph 1011.8mb 83f 78f
4:50 1.3ft 7s 4s 9 11 mph 1012.2mb 83f 77f
3:50 1.6ft 6s 5s 13 22 mph 1012.5mb 83f 77f
2:50 1.6ft 7s 5s 4 7 mph 1012.8mb 83f 82f
1:50 1.6ft 7s 4s 2 4 mph 1013mb 83f 81f